Time;durP1;ratioP1;P1;durP2;ratioP2;P2;SDS_P1;SDS_P2;PMS_P1;PMS_P2;Temp;Humidity;BMP_temperature;BMP_pressure;BME280_temperature;BME280_humidity;BME280_pressure;Samples;Min_cycle;Max_cycle;Signal;HPM_P1;HPM_P2
2022/06/03 00:02:04;;;;;;;1.60;1.50;;;12.40;99.90;;;;;;5004285;28;20186;-77
2022/06/03 00:04:51;;;;;;;1.70;1.60;;;12.40;99.90;;;;;;5033377;28;20300;-77
2022/06/03 00:07:38;;;;;;;2.10;1.90;;;12.40;99.90;;;;;;5033348;28;20272;-77
2022/06/03 00:10:38;;;;;;;1.70;1.60;;;12.30;99.90;;;;;;5033276;28;20633;-77
2022/06/03 00:13:31;;;;;;;1.87;1.77;;;12.40;99.90;;;;;;5032684;28;20201;-77
2022/06/03 00:16:18;;;;;;;1.60;1.50;;;12.30;99.90;;;;;;5033462;28;20199;-77
2022/06/03 00:19:04;;;;;;;2.27;1.77;;;12.30;99.90;;;;;;5049696;28;20180;-77
2022/06/03 00:21:42;;;;;;;1.70;1.60;;;12.30;99.90;;;;;;5034282;28;20162;-77
2022/06/03 00:24:22;;;;;;;2.07;1.50;;;12.10;99.90;;;;;;5049784;28;20178;-77
2022/06/03 00:27:06;;;;;;;2.00;1.47;;;12.20;99.90;;;;;;5049659;28;20193;-77
2022/06/03 00:29:40;;;;;;;1.60;1.50;;;12.20;99.90;;;;;;5049578;28;20173;-77
2022/06/03 00:32:37;;;;;;;1.93;1.80;;;12.20;99.90;;;;;;5032931;28;20193;-77
2022/06/03 00:35:29;;;;;;;1.80;1.70;;;12.10;99.90;;;;;;5032640;28;20267;-77
2022/06/03 00:38:22;;;;;;;1.70;1.60;;;12.10;99.90;;;;;;5049398;28;20177;-77
2022/06/03 00:41:25;;;;;;;1.60;1.50;;;12.00;99.90;;;;;;5033176;28;20251;-77
2022/06/03 00:44:28;;;;;;;2.27;2.07;;;11.90;99.90;;;;;;5032563;28;20182;-77
2022/06/03 00:47:21;;;;;;;2.13;1.60;;;11.90;99.90;;;;;;5033856;28;20538;-77
2022/06/03 00:50:15;;;;;;;1.77;1.67;;;12.00;99.90;;;;;;5049024;28;20182;-77
2022/06/03 00:52:59;;;;;;;1.77;1.67;;;11.90;99.90;;;;;;5049113;28;20229;-77
2022/06/03 00:55:43;;;;;;;3.40;1.90;;;11.90;99.90;;;;;;5049044;28;20241;-77
2022/06/03 00:58:38;;;;;;;2.10;1.83;;;12.00;99.90;;;;;;5032352;28;20535;-77
2022/06/03 01:01:03;;;;;;;1.70;1.60;;;11.90;99.90;;;;;;5032474;28;20170;-77
2022/06/03 01:03:57;;;;;;;1.80;1.70;;;12.10;99.90;;;;;;5032328;28;20185;-77
2022/06/03 01:06:43;;;;;;;1.87;1.77;;;12.10;99.90;;;;;;4995689;28;20616;-77
2022/06/03 01:09:46;;;;;;;1.97;1.83;;;12.20;99.90;;;;;;5033484;28;20205;-77
2022/06/03 01:12:39;;;;;;;1.80;1.70;;;12.20;99.90;;;;;;5032291;28;20182;-77
2022/06/03 01:15:24;;;;;;;1.73;1.63;;;12.20;99.90;;;;;;5031862;28;20305;-77
2022/06/03 01:18:18;;;;;;;1.80;1.70;;;12.20;99.90;;;;;;5031938;28;20224;-77
2022/06/03 01:21:07;;;;;;;1.70;1.60;;;12.20;99.90;;;;;;5021277;28;20320;-77
2022/06/03 01:23:38;;;;;;;1.70;1.60;;;12.20;99.90;;;;;;5020839;28;20274;-77
2022/06/03 01:26:16;;;;;;;1.80;1.70;;;12.00;99.90;;;;;;5031552;28;20252;-77
2022/06/03 01:29:16;;;;;;;1.80;1.70;;;12.00;99.90;;;;;;5031919;28;20273;-77
2022/06/03 01:32:22;;;;;;;1.70;1.60;;;12.10;99.90;;;;;;5048468;28;20197;-77
2022/06/03 01:35:14;;;;;;;2.30;1.87;;;12.10;99.90;;;;;;5048190;28;20214;-77
2022/06/03 01:37:49;;;;;;;1.97;1.80;;;11.90;99.90;;;;;;5032912;28;20174;-77
2022/06/03 01:40:41;;;;;;;1.60;1.50;;;11.90;99.90;;;;;;5031468;28;20209;-77
2022/06/03 01:43:51;;;;;;;1.70;1.40;;;11.90;99.90;;;;;;5033049;28;20166;-77
2022/06/03 01:46:25;;;;;;;2.00;1.80;;;11.80;99.90;;;;;;5031384;28;20202;-77
2022/06/03 01:48:57;;;;;;;1.80;1.50;;;11.50;99.90;;;;;;5031571;28;20232;-77
2022/06/03 01:51:45;;;;;;;1.70;1.60;;;11.40;99.90;;;;;;5031787;28;20174;-77
2022/06/03 01:54:37;;;;;;;1.70;1.60;;;11.40;99.90;;;;;;5031186;28;20206;-77
2022/06/03 01:57:30;;;;;;;2.47;1.60;;;11.40;99.90;;;;;;4996250;28;20215;-77
2022/06/03 02:00:34;;;;;;;1.80;1.70;;;11.40;99.90;;;;;;5031318;28;20174;-77
2022/06/03 02:03:18;;;;;;;1.60;1.50;;;11.40;99.90;;;;;;5031292;28;20212;-77
2022/06/03 02:05:50;;;;;;;1.70;1.60;;;11.40;99.90;;;;;;5048319;28;20210;-77
2022/06/03 02:08:37;;;;;;;1.70;1.60;;;11.50;99.90;;;;;;5031196;28;20182;-77
2022/06/03 02:11:22;;;;;;;1.80;1.70;;;11.50;99.90;;;;;;5031090;28;20224;-77
2022/06/03 02:14:37;;;;;;;2.10;1.60;;;11.40;99.90;;;;;;5030914;28;20260;-77
2022/06/03 02:17:29;;;;;;;3.00;1.80;;;11.30;99.90;;;;;;4994338;28;20186;-77
2022/06/03 02:20:13;;;;;;;1.80;1.70;;;11.30;99.90;;;;;;5027180;28;20221;-77
2022/06/03 02:22:51;;;;;;;1.70;1.60;;;11.40;99.90;;;;;;5030927;28;20166;-77
2022/06/03 02:25:48;;;;;;;1.50;1.40;;;11.40;99.90;;;;;;5030967;28;20225;-77
2022/06/03 02:28:26;;;;;;;2.70;1.90;;;11.40;99.90;;;;;;5030945;28;20235;-77
2022/06/03 02:31:03;;;;;;;2.20;1.67;;;11.30;99.90;;;;;;5030816;28;20182;-77
2022/06/03 02:33:36;;;;;;;1.70;1.60;;;11.20;99.90;;;;;;5032111;28;20189;-77
2022/06/03 02:36:11;;;;;;;1.80;1.70;;;11.10;99.90;;;;;;5035399;28;20190;-77
2022/06/03 02:38:59;;;;;;;1.80;1.70;;;11.00;99.90;;;;;;5037537;28;20189;-77
2022/06/03 02:42:01;;;;;;;2.13;1.80;;;11.00;99.90;;;;;;5038667;28;20209;-77
2022/06/03 02:44:33;;;;;;;1.90;1.80;;;11.10;99.90;;;;;;5037226;28;20197;-77
2022/06/03 02:47:38;;;;;;;2.00;1.63;;;11.20;99.90;;;;;;5037287;28;20178;-77
2022/06/03 02:50:26;;;;;;;2.10;1.90;;;11.30;99.90;;;;;;5037274;28;20186;-77
2022/06/03 02:53:10;;;;;;;2.10;2.00;;;11.10;99.90;;;;;;5037029;28;20261;-77
2022/06/03 02:56:00;;;;;;;1.80;1.70;;;11.00;99.90;;;;;;5037472;28;20194;-77
2022/06/03 02:58:47;;;;;;;2.00;1.90;;;10.90;99.90;;;;;;5037246;28;20175;-77
2022/06/03 03:01:37;;;;;;;2.10;1.90;;;11.00;99.90;;;;;;5037512;28;20163;-77
2022/06/03 03:04:03;;;;;;;1.80;1.70;;;11.00;99.90;;;;;;5036942;28;20257;-77
2022/06/03 03:07:00;;;;;;;2.40;1.60;;;11.00;99.90;;;;;;5037385;28;20277;-77
2022/06/03 03:09:40;;;;;;;2.03;1.83;;;11.10;99.90;;;;;;5005329;28;20316;-77
2022/06/03 03:12:45;;;;;;;1.80;1.70;;;11.10;99.90;;;;;;5036972;28;20189;-77
2022/06/03 03:15:45;;;;;;;2.10;1.90;;;11.10;99.90;;;;;;5037042;28;20674;-77
2022/06/03 03:18:30;;;;;;;1.90;1.80;;;11.10;99.90;;;;;;5054013;28;20265;-77
2022/06/03 03:21:14;;;;;;;1.93;1.80;;;11.00;99.90;;;;;;5053699;28;20525;-77
2022/06/03 03:23:46;;;;;;;2.00;1.90;;;10.90;99.90;;;;;;5036873;28;20182;-77
2022/06/03 03:26:34;;;;;;;2.30;1.90;;;10.90;99.90;;;;;;5038146;28;20198;-77
2022/06/03 03:29:24;;;;;;;1.83;1.73;;;11.00;99.90;;;;;;5036930;28;20214;-77
2022/06/03 03:32:06;;;;;;;2.70;1.90;;;11.00;99.90;;;;;;5036674;28;20696;-77
2022/06/03 03:35:02;;;;;;;3.10;2.03;;;11.00;99.90;;;;;;5036848;28;20210;-77
2022/06/03 03:37:58;;;;;;;1.90;1.80;;;11.10;99.90;;;;;;5037117;28;20209;-77
2022/06/03 03:40:43;;;;;;;1.97;1.87;;;11.10;99.90;;;;;;5036850;28;20177;-76
2022/06/03 03:43:59;;;;;;;1.90;1.80;;;11.00;99.90;;;;;;5036606;28;20653;-77
2022/06/03 03:46:53;;;;;;;1.80;1.70;;;11.10;99.90;;;;;;5003189;28;20190;-77
2022/06/03 03:49:47;;;;;;;1.97;1.77;;;11.20;99.90;;;;;;5049819;28;20656;-77
2022/06/03 03:52:28;;;;;;;2.10;2.00;;;11.20;99.90;;;;;;5033604;28;20637;-77
2022/06/03 03:55:38;;;;;;;2.00;1.80;;;11.20;99.90;;;;;;5050050;28;20209;-77
2022/06/03 03:58:33;;;;;;;2.73;2.00;;;11.20;99.90;;;;;;5033673;28;20556;-77
2022/06/03 04:01:30;;;;;;;2.00;1.90;;;11.20;99.90;;;;;;5050176;28;20176;-77
2022/06/03 04:04:17;;;;;;;1.90;1.80;;;11.20;99.90;;;;;;5033201;28;20213;-77
2022/06/03 04:07:23;;;;;;;1.83;1.73;;;11.10;99.90;;;;;;5033432;28;20644;-77
2022/06/03 04:10:25;;;;;;;1.70;1.60;;;11.00;99.90;;;;;;5033300;28;20266;-77
2022/06/03 04:13:00;;;;;;;2.70;1.90;;;11.20;99.90;;;;;;5033268;28;20247;-77
2022/06/03 04:15:56;;;;;;;2.00;1.90;;;11.20;99.90;;;;;;5033130;28;20795;-77
2022/06/03 04:18:40;;;;;;;1.87;1.77;;;11.10;99.90;;;;;;5033072;28;20177;-77
2022/06/03 04:21:21;;;;;;;2.20;2.00;;;11.10;99.90;;;;;;5033780;28;20269;-77
2022/06/03 04:24:36;;;;;;;2.00;1.80;;;11.00;99.90;;;;;;5033856;28;20224;-77
2022/06/03 04:27:20;;;;;;;2.10;2.00;;;11.00;99.90;;;;;;5042772;28;20184;-77
2022/06/03 04:29:59;;;;;;;2.83;2.03;;;11.00;99.90;;;;;;5033459;28;20170;-77
2022/06/03 04:33:00;;;;;;;2.80;2.00;;;11.00;99.90;;;;;;5049596;28;20225;-76
2022/06/03 04:36:03;;;;;;;2.30;2.10;;;11.10;99.90;;;;;;5034261;28;20269;-76
2022/06/03 04:38:53;;;;;;;1.93;1.83;;;11.30;99.90;;;;;;5034288;28;20253;-77
2022/06/03 04:41:46;;;;;;;2.20;1.97;;;11.20;99.90;;;;;;5033879;28;20166;-77
2022/06/03 04:44:33;;;;;;;2.27;2.07;;;11.20;99.90;;;;;;5032855;28;20181;-77
2022/06/03 04:47:24;;;;;;;2.20;2.00;;;11.30;99.90;;;;;;5033740;28;20228;-77
2022/06/03 04:50:37;;;;;;;2.47;2.07;;;11.40;99.90;;;;;;5033168;28;20178;-77
2022/06/03 04:53:24;;;;;;;2.40;2.20;;;11.40;99.90;;;;;;5016112;28;20661;-77
2022/06/03 04:56:19;;;;;;;2.17;1.97;;;11.50;99.90;;;;;;5032336;28;20240;-77
2022/06/03 04:59:22;;;;;;;3.00;2.20;;;11.50;99.90;;;;;;5031722;28;20174;-77
2022/06/03 05:02:26;;;;;;;2.50;2.30;;;11.60;99.90;;;;;;5032461;28;20193;-77
2022/06/03 05:05:16;;;;;;;2.40;2.20;;;11.50;99.90;;;;;;5031967;28;20313;-77
2022/06/03 05:08:23;;;;;;;2.50;2.20;;;11.40;99.90;;;;;;5032368;28;20248;-77
2022/06/03 05:10:52;;;;;;;2.40;2.20;;;11.50;99.90;;;;;;5005697;28;20186;-77
2022/06/03 05:13:26;;;;;;;2.33;2.20;;;11.40;99.90;;;;;;5032011;28;20202;-77
2022/06/03 05:16:12;;;;;;;2.37;2.17;;;11.50;99.90;;;;;;5033236;28;20196;-77
2022/06/03 05:19:07;;;;;;;2.83;2.63;;;11.50;99.90;;;;;;5019143;28;20316;-77
2022/06/03 05:21:50;;;;;;;2.83;2.63;;;11.50;99.90;;;;;;5033041;28;20310;-77
2022/06/03 05:24:34;;;;;;;3.13;2.70;;;11.60;99.90;;;;;;5032019;28;20198;-77
2022/06/03 05:27:01;;;;;;;3.10;2.70;;;11.50;99.90;;;;;;5032009;28;20182;-77
2022/06/03 05:29:32;;;;;;;3.20;2.93;;;11.50;99.90;;;;;;5033083;28;20178;-77
2022/06/03 05:32:30;;;;;;;3.10;2.80;;;11.60;99.90;;;;;;5031620;28;20620;-77
2022/06/03 05:35:04;;;;;;;3.83;3.20;;;11.60;99.90;;;;;;5031856;28;20210;-77
2022/06/03 05:38:07;;;;;;;3.50;3.20;;;11.70;99.90;;;;;;5031634;28;20189;-77
2022/06/03 05:40:53;;;;;;;2.83;2.63;;;11.80;99.90;;;;;;5031915;28;20178;-77
2022/06/03 05:43:35;;;;;;;2.70;2.50;;;11.90;99.90;;;;;;4991662;28;20527;-77
2022/06/03 05:46:27;;;;;;;3.40;3.10;;;11.90;99.90;;;;;;5032831;28;20194;-77
2022/06/03 05:48:53;;;;;;;3.03;2.73;;;12.00;99.90;;;;;;5048436;28;20182;-77
2022/06/03 05:51:38;;;;;;;3.30;3.00;;;12.10;99.90;;;;;;5031480;28;20293;-77
2022/06/03 05:54:18;;;;;;;3.50;3.20;;;12.20;99.90;;;;;;5047726;28;20202;-78
2022/06/03 05:57:21;;;;;;;5.03;3.20;;;12.20;99.90;;;;;;5048147;28;20548;-78
2022/06/03 06:00:01;;;;;;;3.47;3.17;;;12.30;99.90;;;;;;5031403;28;20617;-77
2022/06/03 06:02:57;;;;;;;5.07;3.40;;;12.40;99.90;;;;;;5047507;28;20245;-77
2022/06/03 06:05:50;;;;;;;3.40;3.10;;;12.50;99.90;;;;;;5031518;28;20382;-78
2022/06/03 06:08:36;;;;;;;3.30;3.00;;;12.60;99.90;;;;;;5048680;28;20171;-80
2022/06/03 06:11:15;;;;;;;3.97;3.07;;;12.70;99.90;;;;;;5031395;28;20189;-77
2022/06/03 06:13:50;;;;;;;3.40;3.10;;;12.80;99.90;;;;;;5031590;28;20216;-77
2022/06/03 06:16:31;;;;;;;3.47;3.17;;;12.90;99.90;;;;;;5032010;28;20190;-77
2022/06/03 06:19:01;;;;;;;4.00;3.20;;;13.10;99.90;;;;;;5032342;28;20649;-77
2022/06/03 06:21:32;;;;;;;2.90;2.70;;;13.20;99.90;;;;;;5031364;28;20172;-77
2022/06/03 06:24:31;;;;;;;3.90;2.70;;;13.30;99.90;;;;;;5030999;28;20190;-77
2022/06/03 06:27:22;;;;;;;3.20;2.90;;;13.50;99.90;;;;;;5032629;28;20209;-77
2022/06/03 06:30:07;;;;;;;3.30;2.43;;;13.60;99.90;;;;;;5032450;28;20182;-77
2022/06/03 06:32:44;;;;;;;2.80;2.60;;;13.80;99.90;;;;;;5033769;28;20190;-77
2022/06/03 06:35:47;;;;;;;3.00;2.40;;;13.90;99.90;;;;;;5032345;28;20284;-77
2022/06/03 06:38:50;;;;;;;2.60;2.40;;;14.00;99.90;;;;;;5032513;28;20170;-77
2022/06/03 06:41:35;;;;;;;2.80;2.60;;;14.10;99.90;;;;;;5033688;28;20667;-77
2022/06/03 06:44:24;;;;;;;3.63;2.80;;;14.30;99.90;;;;;;5049739;28;20536;-77
2022/06/03 06:47:11;;;;;;;4.10;2.67;;;14.30;99.90;;;;;;5033537;28;20228;-77
2022/06/03 06:49:43;;;;;;;3.00;2.50;;;14.50;99.90;;;;;;5032399;28;20698;-77
2022/06/03 06:52:24;;;;;;;2.20;2.00;;;14.60;99.90;;;;;;5049561;28;20179;-77
2022/06/03 06:55:08;;;;;;;2.50;2.30;;;14.60;99.90;;;;;;5031033;28;20193;-77
2022/06/03 06:57:39;;;;;;;3.33;2.43;;;14.70;99.90;;;;;;5031210;28;20192;-77
2022/06/03 07:00:10;;;;;;;2.63;2.27;;;14.80;99.90;;;;;;5032833;28;20177;-77
2022/06/03 07:02:46;;;;;;;2.70;2.50;;;14.90;99.90;;;;;;5031731;28;20162;-77
2022/06/03 07:05:21;;;;;;;2.67;2.47;;;15.10;99.90;;;;;;5047675;28;20210;-77
2022/06/03 07:07:58;;;;;;;2.70;2.50;;;15.30;99.90;;;;;;5030842;28;20640;-77
2022/06/03 07:10:49;;;;;;;4.13;2.30;;;15.30;99.90;;;;;;5047296;28;20185;-77
2022/06/03 07:13:24;;;;;;;2.60;2.40;;;15.40;99.90;;;;;;5029825;28;20566;-77
2022/06/03 07:16:14;;;;;;;2.43;2.23;;;15.50;99.90;;;;;;5047291;28;20189;-76
2022/06/03 07:22:12;;;;;;;3.47;2.30;;;15.80;99.90;;;;;;5031530;28;20529;-76
2022/06/03 07:24:42;;;;;;;2.53;2.00;;;15.90;99.90;;;;;;5034238;28;20198;-76
2022/06/03 07:27:15;;;;;;;3.23;2.43;;;16.00;99.90;;;;;;5035499;28;20682;-76
2022/06/03 07:30:02;;;;;;;4.20;2.47;;;16.20;99.90;;;;;;5050740;28;20170;-77
2022/06/03 07:32:36;;;;;;;2.43;2.00;;;16.30;99.90;;;;;;5050592;28;20266;-76
2022/06/03 07:35:07;;;;;;;2.77;2.27;;;16.40;99.90;;;;;;5050599;28;20202;-76
2022/06/03 07:37:52;;;;;;;2.97;2.20;;;16.40;99.90;;;;;;5050754;28;20170;-76
2022/06/03 07:40:39;;;;;;;2.33;2.13;;;16.50;99.90;;;;;;5033810;28;20688;-77
2022/06/03 07:43:28;;;;;;;2.17;2.00;;;16.50;99.90;;;;;;5033570;28;20695;-76
2022/06/03 07:46:09;;;;;;;2.43;2.23;;;16.70;99.90;;;;;;5034962;28;20178;-76
2022/06/03 07:48:36;;;;;;;2.60;2.30;;;16.90;99.90;;;;;;5035069;28;20710;-76
2022/06/03 07:51:14;;;;;;;2.13;1.80;;;17.00;99.90;;;;;;5033712;28;20171;-76
2022/06/03 07:53:54;;;;;;;2.63;2.30;;;17.20;99.90;;;;;;5033625;28;20205;-76
2022/06/03 07:56:27;;;;;;;2.03;1.80;;;17.30;99.90;;;;;;5050236;28;20181;-77
2022/06/03 07:58:58;;;;;;;2.03;1.90;;;17.50;99.90;;;;;;5017591;28;20313;-77
2022/06/03 08:01:35;;;;;;;3.30;2.00;;;17.60;99.90;;;;;;5033403;28;20182;-76
2022/06/03 08:04:01;;;;;;;1.97;1.87;;;17.80;99.90;;;;;;5049997;28;20178;-76
2022/06/03 08:12:07;;;;;;;1.80;1.70;;;18.20;99.90;;;;;;5014859;28;20182;-75
2022/06/03 08:14:32;;;;;;;2.60;1.70;;;18.40;99.90;;;;;;4980717;28;20219;-75
2022/06/03 08:17:02;;;;;;;2.00;1.80;;;18.50;99.90;;;;;;4997107;28;20176;-76
2022/06/03 08:19:30;;;;;;;2.47;1.90;;;18.50;99.90;;;;;;5013441;28;20175;-75
2022/06/03 08:21:59;;;;;;;2.47;2.00;;;18.60;99.90;;;;;;4996915;28;20277;-75
2022/06/03 08:24:38;;;;;;;2.03;1.73;;;18.60;99.90;;;;;;4997169;28;20269;-75
2022/06/03 08:27:09;;;;;;;1.93;1.80;;;18.70;99.90;;;;;;4997229;28;20621;-76
2022/06/03 08:29:50;;;;;;;2.10;2.00;;;18.90;99.90;;;;;;5013297;28;20206;-76
2022/06/03 08:32:32;;;;;;;2.23;2.00;;;18.90;99.90;;;;;;5013354;28;20178;-76
2022/06/03 08:35:01;;;;;;;2.17;2.00;;;19.00;99.90;;;;;;4996528;28;20211;-75
2022/06/03 08:37:28;;;;;;;2.00;1.87;;;19.30;99.90;;;;;;5013248;28;20175;-75
2022/06/03 08:39:58;;;;;;;1.90;1.80;;;19.60;99.90;;;;;;5012983;28;20583;-75
2022/06/03 08:43:08;;;;;;;2.73;1.90;;;19.80;99.90;;;;;;5012883;28;20693;-75
2022/06/03 08:45:54;;;;;;;2.77;2.00;;;20.00;99.90;;;;;;4956825;28;20200;-75
2022/06/03 08:48:22;;;;;;;2.20;2.00;;;20.30;99.90;;;;;;5028729;28;20180;-75
2022/06/03 08:50:58;;;;;;;2.67;1.90;;;20.40;99.90;;;;;;5013010;28;20179;-75
2022/06/03 08:53:54;;;;;;;2.33;1.83;;;20.70;99.90;;;;;;4996435;28;20206;-75
2022/06/03 08:56:23;;;;;;;2.05;1.85;;;20.90;99.90;;;;;;5012703;28;20661;-75
2022/06/03 08:59:21;;;;;;;4.75;2.03;;;21.00;99.90;;;;;;5012711;28;20182;-75
2022/06/03 09:02:10;;;;;;;2.05;1.85;;;21.20;99.90;;;;;;4991767;28;20188;-75
2022/06/03 09:04:42;;;;;;;2.00;1.67;;;21.30;99.90;;;;;;5012431;28;20186;-76
2022/06/03 09:07:13;;;;;;;2.25;1.75;;;21.50;99.90;;;;;;5012707;28;20190;-76
2022/06/03 09:09:55;;;;;;;1.85;1.75;;;21.60;99.90;;;;;;5013748;28;20653;-75
2022/06/03 09:12:21;;;;;;;1.80;1.70;;;21.70;99.90;;;;;;5012726;28;20187;-76
2022/06/03 09:14:48;;;;;;;2.22;2.03;;;21.90;99.90;;;;;;5012151;28;20272;-76
2022/06/03 09:17:23;;;;;;;1.90;1.80;;;22.00;99.90;;;;;;4996139;28;20183;-76
2022/06/03 09:19:50;;;;;;;2.42;2.00;;;22.10;99.90;;;;;;5013505;28;20190;-76
2022/06/03 09:22:21;;;;;;;2.28;1.70;;;22.30;99.90;;;;;;4995789;28;20209;-76
2022/06/03 09:24:47;;;;;;;2.13;1.90;;;22.50;99.90;;;;;;5012067;28;20199;-76
2022/06/03 09:27:16;;;;;;;1.95;1.70;;;22.60;99.90;;;;;;4996021;28;20179;-75
2022/06/03 09:29:51;;;;;;;2.85;1.70;;;22.60;99.90;;;;;;4995931;28;20183;-75
2022/06/03 09:32:19;;;;;;;2.17;1.98;;;22.70;99.90;;;;;;4996120;28;20289;-75
2022/06/03 09:34:49;;;;;;;2.25;2.05;;;22.90;99.90;;;;;;5011965;28;20203;-75
2022/06/03 09:37:46;;;;;;;2.28;1.92;;;23.00;99.90;;;;;;5011902;28;20183;-75
2022/06/03 09:40:22;;;;;;;2.42;2.10;;;23.20;99.90;;;;;;5009883;28;20194;-75
2022/06/03 09:43:11;;;;;;;2.20;2.00;;;23.30;99.90;;;;;;5012008;28;20710;-75
2022/06/03 09:45:37;;;;;;;2.72;2.00;;;23.60;99.90;;;;;;5001801;28;20203;-76
2022/06/03 09:48:04;;;;;;;2.10;1.90;;;23.70;99.90;;;;;;4995351;28;20712;-75
2022/06/03 09:50:31;;;;;;;1.80;1.70;;;23.80;99.90;;;;;;4995632;28;20179;-75
2022/06/03 09:53:07;;;;;;;2.00;1.80;;;24.00;99.90;;;;;;5012791;28;20171;-76
2022/06/03 09:55:39;;;;;;;2.30;2.05;;;23.90;99.90;;;;;;5012843;28;20198;-76
2022/06/03 09:58:09;;;;;;;1.90;1.77;;;23.90;99.90;;;;;;5012177;28;20163;-76
2022/06/03 10:00:42;;;;;;;3.45;2.05;;;24.10;99.90;;;;;;4995566;28;20178;-76
2022/06/03 10:03:09;;;;;;;2.10;1.90;;;24.30;99.90;;;;;;5011453;28;20545;-76
2022/06/03 10:05:35;;;;;;;2.20;2.03;;;24.50;99.90;;;;;;5011469;28;20581;-75
2022/06/03 10:08:04;;;;;;;2.38;2.10;;;24.80;99.90;;;;;;5011537;28;20180;-76
2022/06/03 10:13:17;;;;;;;2.35;2.00;;;24.80;99.90;;;;;;5013062;28;20198;-76
2022/06/03 10:15:56;;;;;;;2.45;2.10;;;24.80;99.90;;;;;;4995217;28;20567;-76
2022/06/03 10:18:42;;;;;;;2.03;1.92;;;24.70;99.90;;;;;;4995370;28;20233;-75
2022/06/03 10:21:07;;;;;;;2.75;2.00;;;24.70;99.90;;;;;;5011620;28;20213;-76
2022/06/03 10:23:58;;;;;;;2.40;2.30;;;24.60;99.90;;;;;;5012878;28;20171;-75
2022/06/03 10:26:34;;;;;;;2.10;2.00;;;24.90;99.90;;;;;;5007527;28;20206;-75
2022/06/03 10:29:25;;;;;;;2.17;1.98;;;24.70;99.90;;;;;;5011619;28;20227;-75
2022/06/03 10:31:54;;;;;;;2.95;2.00;;;24.90;99.90;;;;;;5011242;28;20186;-75
2022/06/03 10:34:25;;;;;;;2.97;2.20;;;25.30;99.90;;;;;;4994965;28;20210;-75
2022/06/03 10:36:54;;;;;;;2.28;2.08;;;25.00;99.90;;;;;;4994794;28;20179;-75
2022/06/03 10:39:23;;;;;;;2.22;1.90;;;24.70;99.90;;;;;;4994812;28;20731;-74
2022/06/03 10:41:54;;;;;;;2.67;2.15;;;24.50;99.90;;;;;;5010868;28;20202;-74
2022/06/03 10:44:36;;;;;;;2.15;1.88;;;24.30;99.90;;;;;;5011159;28;20555;-74
2022/06/03 10:47:05;;;;;;;2.50;2.17;;;24.10;99.90;;;;;;4996308;28;20186;-74
2022/06/03 10:49:35;;;;;;;2.13;1.92;;;24.10;99.90;;;;;;5011193;28;20179;-74
2022/06/03 11:03:29;;;;;;;2.30;2.10;;;24.30;99.90;;;;;;5015951;28;20182;-76
2022/06/03 11:05:55;;;;;;;2.40;2.20;;;25.00;99.90;;;;;;4997537;28;20211;-76
2022/06/03 11:08:21;;;;;;;2.13;2.00;;;25.40;99.90;;;;;;5014854;28;20226;-76
2022/06/03 11:10:59;;;;;;;3.30;2.25;;;25.40;99.90;;;;;;5014661;28;20217;-76
2022/06/03 11:13:30;;;;;;;2.35;2.15;;;25.20;99.90;;;;;;5014540;28;20174;-76
2022/06/03 11:16:11;;;;;;;2.65;2.05;;;25.20;99.90;;;;;;5012900;28;20290;-76
2022/06/03 11:18:37;;;;;;;2.42;2.00;;;25.30;99.90;;;;;;5015033;28;20167;-76
2022/06/03 11:21:26;;;;;;;2.45;2.00;;;25.20;99.90;;;;;;4998566;28;20175;-76
2022/06/03 11:23:58;;;;;;;2.42;2.20;;;24.80;99.90;;;;;;4998290;28;20248;-76
2022/06/03 11:26:33;;;;;;;2.60;2.20;;;24.80;99.90;;;;;;5015991;28;20536;-76
2022/06/03 11:29:08;;;;;;;2.47;2.20;;;24.90;99.90;;;;;;5030882;28;20190;-76
2022/06/03 11:31:39;;;;;;;2.10;2.00;;;25.00;99.90;;;;;;5015099;28;20167;-76
2022/06/03 11:34:16;;;;;;;2.47;2.00;;;25.20;99.90;;;;;;5014928;28;20544;-76
2022/06/03 11:36:56;;;;;;;2.15;1.98;;;25.60;99.90;;;;;;5014730;28;20162;-76
2022/06/03 11:39:29;;;;;;;2.17;2.05;;;25.50;99.90;;;;;;5014651;28;20167;-76
2022/06/03 11:42:14;;;;;;;2.10;2.00;;;25.80;99.90;;;;;;5014689;28;20186;-76
2022/06/03 11:45:17;;;;;;;1.95;1.85;;;25.90;99.90;;;;;;5014803;28;20253;-77
2022/06/03 11:47:56;;;;;;;2.15;1.98;;;25.70;99.90;;;;;;5014656;28;20194;-77
2022/06/03 11:50:25;;;;;;;3.35;2.10;;;26.00;99.90;;;;;;5015749;28;20162;-77
2022/06/03 11:52:52;;;;;;;3.33;2.00;;;26.40;99.90;;;;;;5014841;28;20183;-77
2022/06/03 11:55:21;;;;;;;2.30;2.00;;;26.80;99.90;;;;;;5015488;28;20199;-77
2022/06/03 11:57:56;;;;;;;2.83;1.85;;;26.90;98.10;;;;;;5014451;28;20179;-78
2022/06/03 12:00:24;;;;;;;3.05;2.00;;;27.30;99.10;;;;;;5015623;28;20234;-77
2022/06/03 12:03:02;;;;;;;2.03;1.90;;;27.50;99.10;;;;;;5014184;28;20179;-77
2022/06/03 12:05:35;;;;;;;2.67;1.90;;;27.70;96.90;;;;;;5015445;28;20280;-77
2022/06/03 12:08:22;;;;;;;3.05;1.90;;;27.80;98.10;;;;;;5013612;28;20199;-77
2022/06/03 12:11:03;;;;;;;2.45;1.83;;;27.50;97.30;;;;;;5014148;28;20171;-77
2022/06/03 12:13:31;;;;;;;2.10;2.00;;;27.40;97.30;;;;;;5015010;28;20162;-77
2022/06/03 12:16:04;;;;;;;2.40;1.90;;;26.80;96.00;;;;;;5014123;28;20191;-77
2022/06/03 12:18:37;;;;;;;2.22;2.03;;;27.10;97.60;;;;;;5014299;28;20175;-77
2022/06/03 12:21:05;;;;;;;2.03;1.80;;;27.40;97.70;;;;;;5015174;28;20641;-77
2022/06/03 12:23:37;;;;;;;3.35;2.20;;;27.40;98.20;;;;;;5014955;28;20174;-77
2022/06/03 12:26:19;;;;;;;2.15;1.95;;;27.40;95.90;;;;;;5014008;28;20187;-76
2022/06/03 12:28:48;;;;;;;2.97;2.03;;;27.50;96.70;;;;;;5013823;28;20221;-76
2022/06/03 12:31:19;;;;;;;2.33;2.03;;;28.10;96.20;;;;;;5013711;28;20182;-76
2022/06/03 12:34:01;;;;;;;2.40;2.20;;;27.80;93.90;;;;;;5013326;28;20575;-76
2022/06/03 12:36:36;;;;;;;3.15;2.10;;;28.10;95.20;;;;;;5013611;28;20190;-76
2022/06/03 12:39:08;;;;;;;3.08;1.90;;;28.40;93.30;;;;;;5013857;28;20170;-76
2022/06/03 12:41:45;;;;;;;2.15;1.95;;;28.60;93.20;;;;;;5013778;28;20618;-76
2022/06/03 12:44:35;;;;;;;2.13;1.83;;;29.00;95.40;;;;;;5013820;28;20606;-76
2022/06/03 12:47:32;;;;;;;1.92;1.80;;;29.50;93.60;;;;;;5013544;28;20182;-76
2022/06/03 12:50:42;;;;;;;2.95;2.00;;;29.70;92.70;;;;;;5016933;28;20170;-76
2022/06/03 12:53:31;;;;;;;2.58;2.20;;;29.70;90.80;;;;;;5011002;28;20266;-76
2022/06/03 12:55:59;;;;;;;2.40;2.00;;;28.40;91.80;;;;;;5013071;28;20207;-76
2022/06/03 12:58:46;;;;;;;2.47;2.10;;;27.90;92.70;;;;;;5013260;28;20183;-76
2022/06/03 13:01:12;;;;;;;2.30;2.10;;;27.40;92.50;;;;;;5029723;28;20163;-76
2022/06/03 13:03:40;;;;;;;2.03;1.90;;;27.30;94.20;;;;;;5013252;28;20570;-76
2022/06/03 13:06:08;;;;;;;2.30;1.98;;;27.10;93.30;;;;;;5013113;28;20210;-76
2022/06/03 13:08:34;;;;;;;3.03;2.10;;;26.40;93.80;;;;;;5013180;28;20350;-76
2022/06/03 13:11:21;;;;;;;2.15;1.80;;;26.70;95.20;;;;;;5013212;28;20265;-77
2022/06/03 13:14:14;;;;;;;1.95;1.83;;;27.20;94.90;;;;;;5014001;28;20177;-77
2022/06/03 13:16:43;;;;;;;3.35;1.90;;;27.70;95.80;;;;;;5014051;28;20219;-77
2022/06/03 13:19:18;;;;;;;2.10;1.90;;;28.10;95.50;;;;;;5012628;28;20171;-77
2022/06/03 13:22:02;;;;;;;1.90;1.80;;;28.40;93.90;;;;;;5011942;28;20600;-77
2022/06/03 13:24:36;;;;;;;2.42;1.90;;;28.60;91.60;;;;;;5012709;28;20195;-77
2022/06/03 13:27:06;;;;;;;1.80;1.70;;;28.90;92.90;;;;;;5012937;28;20167;-77
2022/06/03 13:30:08;;;;;;;2.03;1.90;;;28.50;91.70;;;;;;5013013;28;20179;-77
2022/06/03 13:32:34;;;;;;;2.20;2.00;;;28.10;91.30;;;;;;5000681;28;20204;-77
2022/06/03 13:35:07;;;;;;;2.90;2.10;;;27.40;91.70;;;;;;5013645;28;20569;-77
2022/06/03 13:37:45;;;;;;;2.10;1.80;;;27.20;91.90;;;;;;5029039;28;20684;-77
2022/06/03 13:40:37;;;;;;;2.40;1.85;;;27.40;94.60;;;;;;5013813;28;20187;-77
2022/06/03 13:43:12;;;;;;;2.20;2.00;;;27.80;92.60;;;;;;4993529;28;20278;-77
2022/06/03 13:45:51;;;;;;;3.10;1.90;;;28.00;94.20;;;;;;5013565;28;20727;-76
2022/06/03 13:48:24;;;;;;;2.00;1.90;;;28.00;92.00;;;;;;5012280;28;20175;-77
2022/06/03 13:50:50;;;;;;;2.45;1.95;;;27.80;92.00;;;;;;5012198;28;20179;-77
2022/06/03 13:53:26;;;;;;;3.95;1.90;;;27.70;93.40;;;;;;4995866;28;20197;-76
2022/06/03 13:55:55;;;;;;;3.03;2.10;;;27.70;93.50;;;;;;5012217;28;20234;-77
2022/06/03 13:58:30;;;;;;;3.10;2.20;;;27.60;94.10;;;;;;5012228;28;20756;-76
2022/06/03 14:01:27;;;;;;;2.22;2.05;;;27.50;94.60;;;;;;5012119;28;20181;-77
2022/06/03 14:04:06;;;;;;;2.58;2.00;;;27.50;93.60;;;;;;5010882;28;20218;-77
2022/06/03 14:06:41;;;;;;;3.15;2.10;;;27.50;94.40;;;;;;5046933;22;20224;-77
2022/06/03 14:09:27;;;;;;;2.63;1.90;;;27.40;93.60;;;;;;5051672;28;20169;-82
2022/06/03 14:12:08;;;;;;;3.00;1.90;;;27.30;94.20;;;;;;5051566;28;20227;-77
2022/06/03 14:15:04;;;;;;;2.15;2.00;;;27.30;95.50;;;;;;5051615;28;20165;-77
2022/06/03 14:17:44;;;;;;;2.20;2.08;;;27.50;95.50;;;;;;5033384;28;20169;-77
2022/06/03 14:20:24;;;;;;;2.20;2.00;;;27.50;93.50;;;;;;5031817;28;20264;-77
2022/06/03 14:22:52;;;;;;;2.03;1.92;;;27.60;95.50;;;;;;5031696;28;20254;-76
2022/06/03 14:25:24;;;;;;;2.63;1.90;;;27.60;95.70;;;;;;5032308;28;20214;-77
2022/06/03 14:27:55;;;;;;;2.47;1.92;;;27.50;96.80;;;;;;5033739;28;20177;-77